Time;durP1;ratioP1;P1;durP2;ratioP2;P2;SDS_P1;SDS_P2;PMS_P1;PMS_P2;Temp;Humidity;BMP_temperature;BMP_pressure;BME280_temperature;BME280_humidity;BME280_pressure;Samples;Min_cycle;Max_cycle;Signal;HPM_P1;HPM_P2
2022/03/01 00:01:12;;;;;;;13.70;7.50;;;;;;;;;;4907740;29;20126;-72
2022/03/01 00:03:38;;;;;;;14.25;7.38;;;;;;;;;;4906977;29;20044;-72
2022/03/01 00:06:03;;;;;;;12.27;6.57;;;;;;;;;;4915210;29;20390;-72
2022/03/01 00:08:29;;;;;;;6.75;3.95;;;;;;;;;;4912643;29;20080;-72
2022/03/01 00:10:55;;;;;;;12.63;6.43;;;;;;;;;;4913519;29;20055;-72
2022/03/01 00:13:20;;;;;;;10.20;6.07;;;;;;;;;;4904687;29;20123;-72
2022/03/01 00:15:45;;;;;;;9.88;5.30;;;;;;;;;;4905909;29;20028;-72
2022/03/01 00:18:11;;;;;;;12.02;6.88;;;;;;;;;;4906458;29;20509;-72
2022/03/01 00:20:37;;;;;;;11.02;5.97;;;;;;;;;;4907103;29;20043;-72
2022/03/01 00:23:02;;;;;;;9.95;5.95;;;;;;;;;;4907799;29;20040;-71
2022/03/01 00:25:28;;;;;;;15.27;6.85;;;;;;;;;;4909165;29;20508;-72
2022/03/01 00:27:53;;;;;;;10.38;5.70;;;;;;;;;;4905395;29;20036;-72
2022/03/01 00:30:19;;;;;;;15.27;7.28;;;;;;;;;;4905188;29;20170;-72
2022/03/01 00:32:44;;;;;;;10.27;5.63;;;;;;;;;;4906465;29;20048;-72
2022/03/01 00:35:09;;;;;;;12.57;6.05;;;;;;;;;;4904669;29;20044;-72
2022/03/01 00:37:36;;;;;;;8.40;4.53;;;;;;;;;;4906194;29;20052;-72
2022/03/01 00:40:04;;;;;;;10.50;5.40;;;;;;;;;;4907609;29;20046;-72
2022/03/01 00:42:30;;;;;;;6.20;4.63;;;;;;;;;;4906498;29;20642;-72
2022/03/01 00:44:55;;;;;;;10.68;6.85;;;;;;;;;;4906100;29;20039;-72
2022/03/01 00:47:21;;;;;;;10.70;6.80;;;;;;;;;;4906222;29;20051;-72
2022/03/01 00:49:46;;;;;;;13.13;5.80;;;;;;;;;;4910809;29;20039;-72
2022/03/01 00:52:11;;;;;;;12.48;6.78;;;;;;;;;;4906085;29;20051;-72
2022/03/01 00:54:37;;;;;;;14.38;7.47;;;;;;;;;;4906062;29;20047;-72
2022/03/01 00:57:03;;;;;;;15.18;7.57;;;;;;;;;;4905823;29;20054;-72
2022/03/01 00:59:28;;;;;;;10.68;5.70;;;;;;;;;;4905773;29;20042;-72
2022/03/01 01:01:53;;;;;;;12.57;6.85;;;;;;;;;;4905876;29;20040;-72
2022/03/01 01:04:19;;;;;;;9.02;5.55;;;;;;;;;;4906286;29;20132;-71
2022/03/01 01:06:44;;;;;;;16.65;8.18;;;;;;;;;;4905760;29;20103;-72
2022/03/01 01:09:13;;;;;;;4.50;3.72;;;;;;;;;;4906248;29;20039;-73
2022/03/01 01:11:39;;;;;;;20.27;8.27;;;;;;;;;;4903415;29;20076;-72
2022/03/01 01:14:04;;;;;;;12.75;6.55;;;;;;;;;;4905320;29;21175;-72
2022/03/01 01:16:30;;;;;;;14.60;7.50;;;;;;;;;;4905768;29;20044;-73
2022/03/01 01:18:55;;;;;;;12.82;6.97;;;;;;;;;;4905668;29;20048;-72
2022/03/01 01:21:21;;;;;;;14.95;7.47;;;;;;;;;;4907155;29;20051;-72
2022/03/01 01:23:47;;;;;;;14.38;7.40;;;;;;;;;;4909290;29;20890;-72
2022/03/01 01:26:12;;;;;;;12.40;7.03;;;;;;;;;;4905253;29;20044;-72
2022/03/01 01:28:38;;;;;;;11.73;6.60;;;;;;;;;;4905567;29;20114;-72
2022/03/01 01:31:04;;;;;;;13.32;7.25;;;;;;;;;;4905733;29;20031;-72
2022/03/01 01:33:29;;;;;;;12.90;7.22;;;;;;;;;;4909403;29;20095;-72
2022/03/01 01:35:55;;;;;;;12.05;7.18;;;;;;;;;;4905421;29;20070;-72
2022/03/01 01:38:21;;;;;;;16.35;7.32;;;;;;;;;;4905348;29;20047;-73
2022/03/01 01:40:46;;;;;;;11.23;6.90;;;;;;;;;;4904953;29;20039;-72
2022/03/01 01:43:12;;;;;;;13.25;6.95;;;;;;;;;;4904592;29;20485;-72
2022/03/01 01:45:37;;;;;;;9.27;6.03;;;;;;;;;;4905528;29;20511;-72
2022/03/01 01:48:03;;;;;;;16.90;7.85;;;;;;;;;;4904865;29;20039;-72
2022/03/01 01:50:31;;;;;;;15.45;7.90;;;;;;;;;;4905388;29;20040;-72
2022/03/01 01:52:57;;;;;;;17.45;7.32;;;;;;;;;;4905353;29;20075;-72
2022/03/01 01:55:24;;;;;;;13.88;7.15;;;;;;;;;;4913148;29;20160;-72
2022/03/01 01:57:50;;;;;;;12.63;6.85;;;;;;;;;;4908278;29;20441;-72
2022/03/01 02:00:17;;;;;;;13.32;6.80;;;;;;;;;;4905273;29;20512;-72
2022/03/01 02:02:43;;;;;;;12.45;6.35;;;;;;;;;;4904773;29;20040;-72
2022/03/01 02:05:09;;;;;;;12.55;7.30;;;;;;;;;;4886619;29;20140;-72
2022/03/01 02:07:35;;;;;;;12.88;7.05;;;;;;;;;;4904538;29;20249;-72
2022/03/01 02:10:03;;;;;;;12.30;6.63;;;;;;;;;;4904541;29;20108;-71
2022/03/01 02:12:28;;;;;;;13.05;6.57;;;;;;;;;;4905355;29;20043;-72
2022/03/01 02:14:54;;;;;;;18.38;6.75;;;;;;;;;;4904958;29;20088;-72
2022/03/01 02:17:19;;;;;;;11.93;7.32;;;;;;;;;;4902360;29;20040;-71
2022/03/01 02:19:50;;;;;;;14.13;7.57;;;;;;;;;;4904539;29;20151;-72
2022/03/01 02:22:15;;;;;;;10.63;6.15;;;;;;;;;;4904981;29;20512;-72
2022/03/01 02:24:41;;;;;;;11.60;6.03;;;;;;;;;;4904887;29;20044;-71
2022/03/01 02:27:07;;;;;;;13.35;6.13;;;;;;;;;;4904360;29;20043;-71
2022/03/01 02:29:33;;;;;;;9.07;5.72;;;;;;;;;;4904992;29;20047;-71
2022/03/01 02:32:01;;;;;;;15.82;5.63;;;;;;;;;;4909523;29;20044;-71
2022/03/01 02:34:27;;;;;;;13.00;6.85;;;;;;;;;;4905125;29;20059;-72
2022/03/01 02:36:53;;;;;;;10.63;5.68;;;;;;;;;;4904044;29;20040;-71
2022/03/01 02:39:18;;;;;;;15.68;7.13;;;;;;;;;;4904311;29;20607;-71
2022/03/01 02:41:45;;;;;;;13.20;7.20;;;;;;;;;;4904858;29;20045;-72
2022/03/01 02:44:11;;;;;;;17.17;6.53;;;;;;;;;;4904769;29;20044;-72
2022/03/01 02:46:37;;;;;;;12.80;7.00;;;;;;;;;;4904570;29;20504;-72
2022/03/01 02:49:04;;;;;;;14.10;6.75;;;;;;;;;;4906506;29;20044;-72
2022/03/01 02:51:29;;;;;;;12.40;6.20;;;;;;;;;;4904517;29;20048;-72
2022/03/01 02:53:55;;;;;;;9.80;6.00;;;;;;;;;;4908102;29;20103;-72
2022/03/01 02:56:21;;;;;;;10.98;6.97;;;;;;;;;;4908266;29;20473;-71
2022/03/01 02:58:47;;;;;;;12.20;6.32;;;;;;;;;;4908212;29;20062;-71
2022/03/01 03:01:12;;;;;;;12.05;7.15;;;;;;;;;;4912258;29;20482;-72
2022/03/01 03:03:38;;;;;;;10.43;5.93;;;;;;;;;;4907825;29;20036;-72
2022/03/01 03:06:04;;;;;;;12.15;6.63;;;;;;;;;;4907338;29;20044;-71
2022/03/01 03:08:30;;;;;;;13.50;7.10;;;;;;;;;;4907781;29;20036;-71
2022/03/01 03:10:56;;;;;;;10.00;5.18;;;;;;;;;;4908148;29;20048;-71
2022/03/01 03:13:21;;;;;;;8.68;5.22;;;;;;;;;;4924610;29;20040;-71
2022/03/01 03:15:47;;;;;;;12.55;6.25;;;;;;;;;;4911487;29;20032;-71
2022/03/01 03:18:14;;;;;;;10.57;5.60;;;;;;;;;;4907735;29;20027;-72
2022/03/01 03:20:40;;;;;;;8.77;5.53;;;;;;;;;;4913267;29;20031;-72
2022/03/01 03:23:06;;;;;;;10.25;6.22;;;;;;;;;;4908380;29;20044;-72
2022/03/01 03:25:32;;;;;;;13.52;5.53;;;;;;;;;;4907323;29;20047;-72
2022/03/01 03:27:58;;;;;;;9.65;5.28;;;;;;;;;;4907874;29;20494;-72
2022/03/01 03:30:23;;;;;;;9.68;5.47;;;;;;;;;;4907784;29;20047;-72
2022/03/01 03:32:48;;;;;;;8.57;5.32;;;;;;;;;;4907865;29;20040;-72
2022/03/01 03:35:14;;;;;;;13.13;5.97;;;;;;;;;;4906395;29;20040;-73
2022/03/01 03:37:39;;;;;;;12.48;6.45;;;;;;;;;;4907482;29;20051;-72
2022/03/01 03:40:06;;;;;;;9.95;5.75;;;;;;;;;;4907642;29;20058;-72
2022/03/01 03:42:32;;;;;;;11.95;5.60;;;;;;;;;;4907367;29;20040;-72
2022/03/01 03:44:57;;;;;;;13.30;6.30;;;;;;;;;;4906526;29;20390;-72
2022/03/01 03:47:22;;;;;;;11.18;6.15;;;;;;;;;;4906979;29;20127;-72
2022/03/01 03:49:48;;;;;;;19.35;6.05;;;;;;;;;;4890527;29;20036;-72
2022/03/01 03:52:14;;;;;;;10.32;5.60;;;;;;;;;;4906643;29;20044;-73
2022/03/01 03:54:39;;;;;;;13.82;6.55;;;;;;;;;;4907291;29;20105;-72
2022/03/01 03:57:08;;;;;;;11.82;5.93;;;;;;;;;;4911666;29;20046;-72
2022/03/01 03:59:35;;;;;;;13.82;5.70;;;;;;;;;;4906966;29;20071;-72
2022/03/01 04:02:02;;;;;;;9.45;5.47;;;;;;;;;;4907717;29;20032;-71
2022/03/01 04:04:27;;;;;;;9.63;5.78;;;;;;;;;;4905804;29;20040;-72
2022/03/01 04:06:53;;;;;;;7.72;4.75;;;;;;;;;;4906018;29;20040;-72
2022/03/01 04:09:18;;;;;;;10.90;5.50;;;;;;;;;;4906991;29;20046;-71
2022/03/01 04:11:43;;;;;;;11.75;6.55;;;;;;;;;;4907075;29;20059;-72
2022/03/01 04:14:09;;;;;;;8.20;5.32;;;;;;;;;;4906780;29;20051;-72
2022/03/01 04:16:35;;;;;;;9.10;5.32;;;;;;;;;;4908329;29;20054;-72
2022/03/01 04:19:00;;;;;;;11.90;5.72;;;;;;;;;;4913026;29;20094;-71
2022/03/01 04:21:27;;;;;;;9.50;4.90;;;;;;;;;;4906763;29;20523;-71
2022/03/01 04:23:52;;;;;;;8.18;4.72;;;;;;;;;;4906913;29;20393;-71
2022/03/01 04:26:18;;;;;;;10.45;5.70;;;;;;;;;;4906412;29;20485;-72
2022/03/01 04:28:44;;;;;;;9.00;5.38;;;;;;;;;;4905999;29;20047;-72
2022/03/01 04:31:09;;;;;;;14.88;6.05;;;;;;;;;;4904272;29;20447;-72
2022/03/01 04:33:35;;;;;;;9.50;5.00;;;;;;;;;;4911932;29;20035;-72
2022/03/01 04:36:02;;;;;;;7.03;5.05;;;;;;;;;;4907966;29;20047;-71
2022/03/01 04:38:29;;;;;;;8.15;5.03;;;;;;;;;;4906134;29;20075;-71
2022/03/01 04:40:56;;;;;;;10.43;5.05;;;;;;;;;;4910849;29;20413;-71
2022/03/01 04:43:22;;;;;;;6.60;4.68;;;;;;;;;;4906304;29;20051;-72
2022/03/01 04:45:48;;;;;;;11.85;6.47;;;;;;;;;;4906140;29;20103;-72
2022/03/01 04:48:13;;;;;;;11.98;6.30;;;;;;;;;;4906246;29;20398;-72
2022/03/01 04:50:39;;;;;;;12.10;6.18;;;;;;;;;;4905319;29;20087;-72
2022/03/01 04:53:04;;;;;;;13.35;5.55;;;;;;;;;;4906048;29;20371;-72
2022/03/01 04:55:30;;;;;;;12.40;6.38;;;;;;;;;;4906144;29;20055;-73
2022/03/01 04:57:55;;;;;;;7.20;5.05;;;;;;;;;;4905903;29;20048;-72
2022/03/01 05:00:21;;;;;;;8.68;4.72;;;;;;;;;;4906003;29;20043;-72
2022/03/01 05:02:47;;;;;;;9.32;4.68;;;;;;;;;;4905764;29;20040;-72
2022/03/01 05:05:14;;;;;;;9.27;5.20;;;;;;;;;;4905708;29;20036;-71
2022/03/01 05:07:47;;;;;;;10.43;4.95;;;;;;;;;;4906028;29;20207;-71
2022/03/01 05:10:17;;;;;;;10.35;5.38;;;;;;;;;;4906059;29;20386;-72
2022/03/01 05:12:48;;;;;;;9.45;4.90;;;;;;;;;;4905249;29;20040;-71
2022/03/01 05:15:15;;;;;;;6.68;4.03;;;;;;;;;;4909198;29;20490;-72
2022/03/01 05:17:40;;;;;;;10.23;5.20;;;;;;;;;;4896434;29;20039;-73
2022/03/01 05:20:07;;;;;;;12.52;5.28;;;;;;;;;;4905744;29;20470;-72
2022/03/01 05:22:34;;;;;;;10.05;4.80;;;;;;;;;;4905363;29;20058;-72
2022/03/01 05:25:01;;;;;;;5.55;3.88;;;;;;;;;;4892540;29;20040;-71
2022/03/01 05:27:28;;;;;;;9.63;4.90;;;;;;;;;;4909891;29;20511;-72
2022/03/01 05:29:54;;;;;;;8.73;5.45;;;;;;;;;;4908449;29;20115;-72
2022/03/01 05:32:19;;;;;;;9.73;5.03;;;;;;;;;;4905870;29;20035;-72
2022/03/01 05:34:45;;;;;;;9.02;5.07;;;;;;;;;;4901042;29;20115;-72
2022/03/01 05:37:10;;;;;;;9.38;5.45;;;;;;;;;;4906778;29;20493;-72
2022/03/01 05:39:36;;;;;;;7.55;4.85;;;;;;;;;;4906401;29;20044;-72
2022/03/01 05:42:02;;;;;;;8.07;4.78;;;;;;;;;;4905206;29;20042;-72
2022/03/01 05:44:27;;;;;;;9.30;5.10;;;;;;;;;;4904872;29;20146;-72
2022/03/01 05:46:53;;;;;;;10.55;5.30;;;;;;;;;;4903427;29;20043;-72
2022/03/01 05:49:18;;;;;;;10.70;4.95;;;;;;;;;;4904395;29;20039;-72
2022/03/01 05:51:43;;;;;;;12.57;6.53;;;;;;;;;;4904707;29;20103;-72
2022/03/01 05:54:09;;;;;;;8.00;4.93;;;;;;;;;;4886898;29;20051;-71
2022/03/01 05:56:35;;;;;;;9.25;4.43;;;;;;;;;;4903080;29;20032;-72
2022/03/01 05:59:00;;;;;;;7.75;4.68;;;;;;;;;;4904777;29;20048;-71
2022/03/01 06:01:26;;;;;;;10.50;4.93;;;;;;;;;;4905234;29;20055;-72
2022/03/01 06:03:51;;;;;;;8.57;4.25;;;;;;;;;;4904881;29;20036;-72
2022/03/01 06:06:18;;;;;;;9.70;4.38;;;;;;;;;;4905073;29;20495;-72
2022/03/01 06:08:44;;;;;;;6.32;3.28;;;;;;;;;;4909283;29;21112;-72
2022/03/01 06:11:09;;;;;;;11.00;4.35;;;;;;;;;;4904986;29;20099;-73
2022/03/01 06:13:37;;;;;;;9.75;4.55;;;;;;;;;;4903824;29;20047;-73
2022/03/01 06:16:04;;;;;;;5.53;4.25;;;;;;;;;;4885595;29;20096;-72
2022/03/01 06:18:29;;;;;;;6.78;4.43;;;;;;;;;;4905285;29;20046;-72
2022/03/01 06:20:55;;;;;;;6.53;3.28;;;;;;;;;;4905763;29;20035;-73
2022/03/01 06:23:21;;;;;;;7.75;4.93;;;;;;;;;;4902207;29;20607;-73
2022/03/01 06:25:47;;;;;;;3.33;2.67;;;;;;;;;;4911337;29;20548;-72
2022/03/01 06:28:12;;;;;;;5.72;3.20;;;;;;;;;;4906843;29;20047;-72
2022/03/01 06:30:38;;;;;;;11.13;5.03;;;;;;;;;;4907088;29;20051;-70
2022/03/01 06:33:04;;;;;;;13.70;5.90;;;;;;;;;;4907321;29;20040;-70
2022/03/01 06:35:30;;;;;;;9.68;5.53;;;;;;;;;;4908713;29;20036;-72
2022/03/01 06:37:56;;;;;;;8.68;5.07;;;;;;;;;;4908542;29;20144;-73
2022/03/01 06:40:22;;;;;;;12.32;5.50;;;;;;;;;;4911064;29;20464;-73
2022/03/01 06:42:48;;;;;;;8.50;4.55;;;;;;;;;;4912212;29;20508;-73
2022/03/01 06:45:14;;;;;;;11.63;4.53;;;;;;;;;;4908277;29;20039;-72
2022/03/01 06:47:39;;;;;;;11.48;5.50;;;;;;;;;;4908458;29;20040;-73
2022/03/01 06:50:06;;;;;;;9.98;5.10;;;;;;;;;;4908753;29;20042;-72
2022/03/01 06:52:34;;;;;;;11.10;5.50;;;;;;;;;;4913065;29;20131;-73
2022/03/01 06:55:01;;;;;;;11.00;5.95;;;;;;;;;;4907146;29;20067;-73
2022/03/01 06:57:26;;;;;;;10.48;5.22;;;;;;;;;;4892969;29;20048;-73
2022/03/01 06:59:53;;;;;;;12.38;5.35;;;;;;;;;;4908263;29;20040;-73
2022/03/01 07:02:20;;;;;;;7.50;4.80;;;;;;;;;;4907385;29;20052;-74
2022/03/01 07:04:45;;;;;;;7.38;4.07;;;;;;;;;;4907912;29;20548;-72
2022/03/01 07:07:11;;;;;;;6.43;3.63;;;;;;;;;;4907491;29;20063;-73
2022/03/01 07:09:36;;;;;;;19.60;7.60;;;;;;;;;;4912081;29;20035;-73
2022/03/01 07:12:02;;;;;;;6.57;3.97;;;;;;;;;;4909858;29;20434;-70
2022/03/01 07:14:28;;;;;;;6.55;3.22;;;;;;;;;;4906797;29;20040;-72
2022/03/01 07:16:53;;;;;;;6.63;3.80;;;;;;;;;;4894828;29;20073;-70
2022/03/01 07:19:18;;;;;;;8.27;4.25;;;;;;;;;;4907339;29;20123;-70
2022/03/01 07:21:44;;;;;;;10.13;3.85;;;;;;;;;;4909328;29;20095;-70
2022/03/01 07:24:09;;;;;;;6.07;3.90;;;;;;;;;;4908589;29;21356;-73
2022/03/01 07:26:35;;;;;;;9.05;4.55;;;;;;;;;;4915886;29;20084;-73
2022/03/01 07:29:00;;;;;;;7.32;4.20;;;;;;;;;;4919191;29;20031;-70
2022/03/01 07:31:26;;;;;;;8.20;3.65;;;;;;;;;;4917869;29;20515;-72
2022/03/01 07:37:19;;;;;;;6.80;4.43;;;;;;;;;;4904235;29;20123;-75
2022/03/01 07:39:45;;;;;;;7.82;4.70;;;;;;;;;;4906401;29;20036;-73
2022/03/01 07:42:10;;;;;;;8.10;4.35;;;;;;;;;;4890702;29;20489;-71
2022/03/01 07:44:37;;;;;;;6.63;4.07;;;;;;;;;;4907151;29;20086;-72
2022/03/01 07:47:07;;;;;;;6.80;4.28;;;;;;;;;;4887622;29;20052;-73
2022/03/01 07:49:33;;;;;;;7.38;4.57;;;;;;;;;;4886096;29;20100;-74
2022/03/01 07:51:58;;;;;;;7.18;4.50;;;;;;;;;;4886933;29;20040;-75
2022/03/01 07:54:24;;;;;;;8.57;4.82;;;;;;;;;;4888052;29;20040;-74
2022/03/01 07:56:49;;;;;;;6.95;4.38;;;;;;;;;;4887244;29;20032;-74
2022/03/01 07:59:15;;;;;;;8.20;4.40;;;;;;;;;;4886733;29;20474;-71
2022/03/01 08:01:40;;;;;;;6.68;3.90;;;;;;;;;;4887336;29;20068;-70
2022/03/01 08:04:06;;;;;;;8.57;4.75;;;;;;;;;;4887542;29;20048;-72
2022/03/01 08:06:31;;;;;;;9.48;4.80;;;;;;;;;;4887629;29;20119;-71
2022/03/01 08:08:57;;;;;;;7.85;4.75;;;;;;;;;;4886289;29;20044;-72
2022/03/01 08:11:22;;;;;;;7.55;4.97;;;;;;;;;;4887763;29;20477;-72
2022/03/01 08:13:47;;;;;;;8.32;4.88;;;;;;;;;;4886822;29;20865;-70
2022/03/01 08:16:13;;;;;;;6.95;4.47;;;;;;;;;;4870312;29;20071;-71
2022/03/01 08:18:38;;;;;;;8.55;4.63;;;;;;;;;;4887114;29;20111;-70
2022/03/01 08:21:06;;;;;;;6.25;4.45;;;;;;;;;;4886816;29;20063;-69
2022/03/01 08:23:32;;;;;;;8.75;4.60;;;;;;;;;;4886495;29;20502;-69
2022/03/01 08:25:58;;;;;;;8.77;5.47;;;;;;;;;;4886653;29;20035;-69
2022/03/01 08:28:25;;;;;;;10.07;5.07;;;;;;;;;;4886724;29;20048;-69
2022/03/01 08:30:52;;;;;;;8.23;5.30;;;;;;;;;;4888014;29;20044;-69
2022/03/01 08:33:18;;;;;;;8.77;5.18;;;;;;;;;;4889864;29;20071;-70
2022/03/01 08:35:44;;;;;;;9.45;4.93;;;;;;;;;;4890113;29;20064;-71
2022/03/01 08:38:09;;;;;;;6.50;4.70;;;;;;;;;;4887497;29;20044;-71
2022/03/01 08:40:38;;;;;;;7.93;5.10;;;;;;;;;;4885495;29;20055;-71
2022/03/01 08:43:04;;;;;;;10.70;5.70;;;;;;;;;;4883834;29;20040;-71
2022/03/01 08:45:30;;;;;;;5.80;4.63;;;;;;;;;;4885587;29;20032;-71
2022/03/01 08:47:56;;;;;;;12.45;5.05;;;;;;;;;;4885750;29;20037;-71
2022/03/01 08:50:21;;;;;;;10.05;5.20;;;;;;;;;;4886242;29;20395;-71
2022/03/01 08:52:48;;;;;;;10.25;5.10;;;;;;;;;;4885114;29;20051;-73
2022/03/01 08:55:13;;;;;;;8.15;5.25;;;;;;;;;;4886200;29;20044;-70
2022/03/01 08:57:39;;;;;;;8.68;5.57;;;;;;;;;;4885325;29;20083;-71
2022/03/01 09:00:08;;;;;;;10.93;5.50;;;;;;;;;;4885624;29;20047;-71
2022/03/01 09:02:34;;;;;;;11.45;5.00;;;;;;;;;;4884489;29;20047;-69
2022/03/01 09:04:59;;;;;;;11.13;5.30;;;;;;;;;;4883310;29;20047;-70
2022/03/01 09:07:25;;;;;;;7.28;4.80;;;;;;;;;;4884379;29;20048;-70
2022/03/01 09:09:51;;;;;;;8.40;4.95;;;;;;;;;;4882539;29;20036;-70
2022/03/01 09:12:16;;;;;;;5.72;4.22;;;;;;;;;;4881489;29;20041;-70
2022/03/01 09:14:42;;;;;;;7.25;4.57;;;;;;;;;;4883747;29;20082;-69
2022/03/01 09:17:07;;;;;;;10.27;4.38;;;;;;;;;;4884300;29;20929;-69
2022/03/01 09:20:23;;;;;;;7.45;4.80;;;;;;;;;;4885023;29;20036;-69
2022/03/01 09:22:50;;;;;;;8.25;5.30;;;;;;;;;;4884010;29;20040;-69
2022/03/01 09:25:15;;;;;;;8.60;5.43;;;;;;;;;;4884204;29;20071;-69
2022/03/01 09:27:41;;;;;;;8.63;5.43;;;;;;;;;;4883940;29;20064;-69
2022/03/01 09:30:07;;;;;;;7.25;4.90;;;;;;;;;;4884964;29;20075;-69
2022/03/01 09:32:34;;;;;;;8.60;4.80;;;;;;;;;;4886246;29;20037;-71
2022/03/01 09:34:59;;;;;;;11.77;4.60;;;;;;;;;;4970543;23;20036;-73
2022/03/01 09:37:31;;;;;;;7.35;4.90;;;;;;;;;;4902262;29;20048;-72
2022/03/01 09:40:01;;;;;;;7.90;4.93;;;;;;;;;;4905260;29;20036;-71
2022/03/01 09:42:27;;;;;;;9.75;5.32;;;;;;;;;;4903932;29;20524;-73
2022/03/01 09:44:54;;;;;;;7.22;4.55;;;;;;;;;;4902835;29;20087;-71
2022/03/01 09:47:20;;;;;;;6.85;4.50;;;;;;;;;;4901897;29;20039;-70
2022/03/01 09:49:46;;;;;;;8.50;4.00;;;;;;;;;;4886580;29;20126;-72
2022/03/01 09:52:13;;;;;;;7.53;4.57;;;;;;;;;;4902823;29;20119;-73
2022/03/01 09:54:39;;;;;;;8.20;4.57;;;;;;;;;;4903033;29;20124;-74
2022/03/01 09:57:04;;;;;;;5.55;4.10;;;;;;;;;;4902355;29;20040;-70
2022/03/01 09:59:30;;;;;;;6.78;4.07;;;;;;;;;;4903013;29;20035;-70
2022/03/01 10:05:42;;;;;;;6.40;4.13;;;;;;;;;;4899006;29;20096;-70
2022/03/01 10:08:14;;;;;;;7.60;4.05;;;;;;;;;;4903455;29;20047;-70
2022/03/01 10:10:42;;;;;;;6.73;4.40;;;;;;;;;;4885903;29;21178;-72
2022/03/01 10:13:25;;;;;;;5.57;3.95;;;;;;;;;;4906682;29;20040;-71
2022/03/01 10:19:38;;;;;;;8.00;4.00;;;;;;;;;;4905503;29;20088;-70
2022/03/01 10:25:51;;;;;;;7.07;3.50;;;;;;;;;;4901749;29;20050;-71
2022/03/01 10:32:12;;;;;;;5.03;3.30;;;;;;;;;;4902098;29;20155;-70
2022/03/01 10:34:38;;;;;;;7.28;4.53;;;;;;;;;;4902120;29;20537;-70
2022/03/01 10:37:06;;;;;;;5.53;3.83;;;;;;;;;;4904676;29;20032;-71
2022/03/01 10:39:33;;;;;;;5.95;3.55;;;;;;;;;;4905240;29;20059;-69
2022/03/01 10:45:49;;;;;;;6.70;3.88;;;;;;;;;;4905310;29;20069;-72
2022/03/01 10:52:08;;;;;;;7.75;3.63;;;;;;;;;;4904778;29;20080;-70
2022/03/01 10:57:23;;;;;;;6.97;3.78;;;;;;;;;;5360780;23;20132;-69
2022/03/01 11:00:27;;;;;;;7.20;3.95;;;;;;;;;;4921217;29;20040;-72
2022/03/01 11:02:52;;;;;;;7.82;3.00;;;;;;;;;;4919154;29;20036;-69
2022/03/01 11:05:19;;;;;;;5.70;4.05;;;;;;;;;;4916509;29;20571;-71
2022/03/01 11:07:47;;;;;;;6.97;3.40;;;;;;;;;;4902412;29;20258;-69
2022/03/01 11:10:12;;;;;;;7.95;3.38;;;;;;;;;;4903533;29;20095;-71
2022/03/01 11:12:40;;;;;;;5.25;3.22;;;;;;;;;;4906747;29;20043;-74
2022/03/01 11:15:08;;;;;;;5.07;3.70;;;;;;;;;;4906833;29;20663;-73
2022/03/01 11:17:43;;;;;;;5.25;3.20;;;;;;;;;;4908991;29;20123;-70
2022/03/01 11:20:14;;;;;;;4.32;3.25;;;;;;;;;;4906689;29;20047;-69
2022/03/01 11:22:53;;;;;;;5.32;3.33;;;;;;;;;;4906424;29;20036;-70
2022/03/01 11:25:23;;;;;;;5.47;3.70;;;;;;;;;;4906826;29;20075;-75
2022/03/01 11:27:58;;;;;;;4.63;3.60;;;;;;;;;;4906657;29;20044;-69
2022/03/01 11:30:31;;;;;;;5.88;3.72;;;;;;;;;;4913467;29;20044;-72
2022/03/01 11:32:57;;;;;;;5.47;3.72;;;;;;;;;;4909549;29;20048;-69
2022/03/01 11:35:24;;;;;;;4.75;3.65;;;;;;;;;;4913305;29;20559;-68
2022/03/01 11:38:03;;;;;;;7.20;4.07;;;;;;;;;;4906350;29;20071;-70
2022/03/01 11:40:34;;;;;;;7.30;3.85;;;;;;;;;;4933653;29;20048;-71
2022/03/01 11:43:10;;;;;;;5.28;3.85;;;;;;;;;;4922262;29;20118;-69
2022/03/01 11:45:37;;;;;;;3.42;3.00;;;;;;;;;;4916706;29;20039;-73
2022/03/01 11:48:14;;;;;;;5.32;3.00;;;;;;;;;;4896372;29;20036;-68
2022/03/01 11:50:49;;;;;;;5.57;3.78;;;;;;;;;;4914156;29;20039;-70
2022/03/01 11:53:18;;;;;;;9.18;3.63;;;;;;;;;;4912886;29;20465;-69
2022/03/01 11:55:56;;;;;;;4.38;2.97;;;;;;;;;;4908584;29;20421;-71
2022/03/01 11:58:23;;;;;;;4.82;3.15;;;;;;;;;;4911369;29;20059;-69
2022/03/01 12:00:50;;;;;;;3.97;3.10;;;;;;;;;;4888396;29;20047;-70
2022/03/01 12:07:03;;;;;;;12.13;3.85;;;;;;;;;;5029253;23;20062;-71
2022/03/01 12:10:24;;;;;;;3.83;3.03;;;;;;;;;;4927876;29;20051;-72
2022/03/01 12:12:54;;;;;;;3.53;2.75;;;;;;;;;;4906162;29;20449;-70
2022/03/01 12:15:28;;;;;;;5.38;3.30;;;;;;;;;;4920225;29;20046;-71
2022/03/01 12:21:18;;;;;;;4.10;3.20;;;;;;;;;;4909210;29;20032;-69
2022/03/01 12:23:52;;;;;;;4.88;2.95;;;;;;;;;;4895148;29;20059;-69
2022/03/01 12:26:17;;;;;;;3.60;3.03;;;;;;;;;;4927602;23;20056;-72
2022/03/01 12:28:50;;;;;;;4.85;3.20;;;;;;;;;;4922808;29;20042;-70
2022/03/01 12:31:18;;;;;;;3.15;2.83;;;;;;;;;;4924215;29;20039;-72
2022/03/01 12:37:27;;;;;;;3.30;3.00;;;;;;;;;;5462031;23;20110;-70
2022/03/01 12:39:53;;;;;;;2.90;2.55;;;;;;;;;;4923677;29;20047;-69
2022/03/01 12:42:21;;;;;;;5.90;3.70;;;;;;;;;;4924159;29;20044;-70
2022/03/01 12:44:46;;;;;;;5.57;3.28;;;;;;;;;;4923781;29;20092;-73
2022/03/01 12:47:12;;;;;;;3.45;2.88;;;;;;;;;;4907547;29;20074;-69
2022/03/01 12:49:38;;;;;;;6.82;2.78;;;;;;;;;;4907521;29;20116;-72
2022/03/01 12:52:04;;;;;;;3.92;3.25;;;;;;;;;;4913545;29;20051;-70
2022/03/01 12:54:30;;;;;;;5.70;3.05;;;;;;;;;;4908633;29;20048;-71
2022/03/01 12:56:58;;;;;;;5.20;3.30;;;;;;;;;;4910213;29;20035;-70
2022/03/01 12:59:26;;;;;;;4.68;3.08;;;;;;;;;;4910140;29;20032;-70
2022/03/01 13:01:55;;;;;;;3.92;3.10;;;;;;;;;;4907350;29;20040;-70
2022/03/01 13:04:27;;;;;;;6.72;3.50;;;;;;;;;;4912206;29;20024;-71
2022/03/01 13:06:53;;;;;;;4.68;3.47;;;;;;;;;;4904306;29;20036;-72
2022/03/01 13:13:08;;;;;;;6.07;3.05;;;;;;;;;;4904340;29;20102;-72
2022/03/01 13:15:37;;;;;;;6.82;3.47;;;;;;;;;;4904859;29;20096;-71
2022/03/01 13:18:03;;;;;;;4.15;3.15;;;;;;;;;;4902913;29;20040;-72
2022/03/01 13:20:30;;;;;;;5.13;3.40;;;;;;;;;;4903401;29;20068;-71
2022/03/01 13:23:07;;;;;;;4.75;2.90;;;;;;;;;;4903248;29;20390;-72
2022/03/01 13:25:35;;;;;;;5.97;3.72;;;;;;;;;;4902012;29;20050;-71
2022/03/01 13:28:03;;;;;;;6.18;2.95;;;;;;;;;;4884682;29;20040;-71
2022/03/01 13:30:29;;;;;;;4.45;3.30;;;;;;;;;;4903577;29;20039;-72
2022/03/01 13:33:07;;;;;;;7.18;4.10;;;;;;;;;;4902703;29;20039;-73
2022/03/01 13:35:33;;;;;;;7.00;3.50;;;;;;;;;;4901812;29;20122;-72
2022/03/01 13:38:00;;;;;;;6.55;3.35;;;;;;;;;;4903212;29;20040;-70
2022/03/01 13:40:27;;;;;;;5.38;3.92;;;;;;;;;;4905153;29;20106;-72
2022/03/01 13:43:12;;;;;;;5.75;3.58;;;;;;;;;;4918139;29;20043;-70
2022/03/01 13:45:40;;;;;;;5.03;3.60;;;;;;;;;;4902838;29;20044;-71
2022/03/01 13:48:16;;;;;;;4.28;3.40;;;;;;;;;;4903519;29;20036;-71
2022/03/01 13:50:45;;;;;;;4.93;3.35;;;;;;;;;;4907851;29;20091;-72
2022/03/01 13:53:14;;;;;;;4.10;3.35;;;;;;;;;;4903069;29;20050;-70
2022/03/01 13:55:40;;;;;;;3.58;2.63;;;;;;;;;;4903235;29;20047;-71
2022/03/01 13:58:10;;;;;;;5.13;3.53;;;;;;;;;;4903390;29;20493;-71
2022/03/01 14:00:58;;;;;;;8.60;3.63;;;;;;;;;;4902449;29;20040;-72
2022/03/01 14:03:26;;;;;;;3.92;2.92;;;;;;;;;;4911360;29;20188;-72
2022/03/01 14:05:57;;;;;;;6.50;2.63;;;;;;;;;;4904543;29;20426;-71
2022/03/01 14:08:24;;;;;;;4.93;3.20;;;;;;;;;;4908251;29;20405;-70
2022/03/01 14:10:54;;;;;;;4.55;2.63;;;;;;;;;;4906345;29;20058;-71
2022/03/01 14:13:30;;;;;;;4.00;2.75;;;;;;;;;;4904014;29;20046;-71
2022/03/01 14:16:10;;;;;;;3.13;2.60;;;;;;;;;;4904540;29;20075;-71
2022/03/01 14:18:42;;;;;;;2.60;2.03;;;;;;;;;;4904706;29;20070;-69
2022/03/01 14:21:11;;;;;;;2.60;2.40;;;;;;;;;;4904608;29;20040;-71
2022/03/01 14:23:38;;;;;;;2.50;1.95;;;;;;;;;;4904183;29;20102;-71
2022/03/01 14:26:05;;;;;;;3.97;2.65;;;;;;;;;;4904541;29;20505;-72
2022/03/01 14:28:31;;;;;;;4.35;2.53;;;;;;;;;;4904635;29;20155;-72
2022/03/01 14:30:58;;;;;;;3.10;2.22;;;;;;;;;;4904494;29;20088;-72
2022/03/01 14:33:28;;;;;;;3.00;2.40;;;;;;;;;;4904176;29;20044;-71
2022/03/01 14:35:54;;;;;;;3.72;2.47;;;;;;;;;;4910812;29;20150;-71
2022/03/01 14:38:20;;;;;;;4.63;3.30;;;;;;;;;;4912064;29;20139;-73
2022/03/01 14:40:46;;;;;;;5.00;3.55;;;;;;;;;;4904868;29;21071;-74
2022/03/01 14:43:11;;;;;;;5.10;3.67;;;;;;;;;;4904442;29;20095;-73
2022/03/01 14:45:37;;;;;;;11.50;4.22;;;;;;;;;;4904185;29;20044;-71
2022/03/01 14:48:05;;;;;;;8.60;4.22;;;;;;;;;;4909578;29;20087;-70
2022/03/01 14:50:32;;;;;;;4.75;3.80;;;;;;;;;;4907689;29;20489;-70
2022/03/01 14:52:58;;;;;;;4.88;3.55;;;;;;;;;;4909661;29;20040;-70
2022/03/01 14:55:23;;;;;;;5.63;4.10;;;;;;;;;;4911312;29;20039;-71
2022/03/01 14:57:49;;;;;;;5.72;2.92;;;;;;;;;;4908220;29;20099;-69
2022/03/01 15:00:15;;;;;;;5.47;3.58;;;;;;;;;;4908835;29;20052;-70
2022/03/01 15:02:42;;;;;;;5.38;3.65;;;;;;;;;;4909980;29;20040;-71
2022/03/01 15:05:08;;;;;;;6.30;3.60;;;;;;;;;;4909663;29;20070;-71
2022/03/01 15:07:34;;;;;;;8.52;3.47;;;;;;;;;;4890683;29;20047;-73
2022/03/01 15:10:00;;;;;;;5.28;3.55;;;;;;;;;;4908625;29;20059;-68
2022/03/01 15:12:25;;;;;;;6.43;3.75;;;;;;;;;;4908081;29;20040;-69
2022/03/01 15:14:51;;;;;;;6.45;3.75;;;;;;;;;;4908805;29;20044;-71
2022/03/01 15:17:16;;;;;;;4.75;3.55;;;;;;;;;;4908394;29;20050;-71
2022/03/01 15:19:42;;;;;;;5.88;3.60;;;;;;;;;;4909156;29;20032;-70
2022/03/01 15:22:09;;;;;;;5.88;3.38;;;;;;;;;;4919512;29;20114;-70